createdAt,value
2023-01-21T00:02:42.974Z,95307
2023-01-21T00:06:08.200Z,95310
2023-01-21T00:09:33.440Z,95309
2023-01-21T00:12:58.700Z,95311
2023-01-21T00:16:23.991Z,95309
2023-01-21T00:19:49.221Z,95316
2023-01-21T00:23:14.466Z,95320
2023-01-21T00:26:39.703Z,95325
2023-01-21T00:30:04.952Z,95327
2023-01-21T00:33:30.244Z,95329
2023-01-21T00:36:56.577Z,95334
2023-01-21T00:40:20.703Z,95330
2023-01-21T00:43:45.952Z,95325
2023-01-21T00:47:11.195Z,95328
2023-01-21T00:50:36.477Z,95333
2023-01-21T00:54:01.686Z,95334
2023-01-21T00:57:26.935Z,95341
2023-01-21T01:00:52.201Z,95346
2023-01-21T01:04:17.449Z,95349
2023-01-21T01:07:43.090Z,95353
2023-01-21T01:11:08.282Z,95356
2023-01-21T01:14:33.551Z,95358
2023-01-21T01:17:58.814Z,95360
2023-01-21T01:21:24.429Z,95356
2023-01-21T01:24:49.720Z,95358
2023-01-21T01:28:14.925Z,95357
2023-01-21T01:31:40.263Z,95353
2023-01-21T01:35:05.434Z,95350
2023-01-21T01:38:30.696Z,95353
2023-01-21T01:41:55.982Z,95372
2023-01-21T01:45:21.210Z,95370
2023-01-21T01:48:46.437Z,95375
2023-01-21T01:52:11.695Z,95376
2023-01-21T01:55:36.937Z,95379
2023-01-21T01:59:02.219Z,95380
2023-01-21T02:02:27.422Z,95383
2023-01-21T02:05:52.693Z,95384
2023-01-21T02:09:17.945Z,95384
2023-01-21T02:12:43.174Z,95380
2023-01-21T02:16:08.488Z,95371
2023-01-21T02:19:33.680Z,95385
2023-01-21T02:22:58.947Z,95388
2023-01-21T02:26:24.179Z,95385
2023-01-21T02:29:49.413Z,95386
2023-01-21T02:33:14.656Z,95385
2023-01-21T02:36:39.875Z,95390
2023-01-21T02:40:05.136Z,95381
2023-01-21T02:43:30.378Z,95391
2023-01-21T02:46:55.683Z,95385
2023-01-21T02:50:20.875Z,95390
2023-01-21T02:53:46.090Z,95389
2023-01-21T02:57:11.356Z,95391
2023-01-21T03:00:36.621Z,95389
2023-01-21T03:04:01.859Z,95394
2023-01-21T03:07:27.132Z,95388
2023-01-21T03:10:52.344Z,95387
2023-01-21T03:14:17.600Z,95393
2023-01-21T03:17:42.856Z,95398
2023-01-21T03:21:08.083Z,95389
2023-01-21T03:24:33.347Z,95399
2023-01-21T03:27:58.590Z,95395
2023-01-21T03:31:23.869Z,95410
2023-01-21T03:34:49.107Z,95399
2023-01-21T03:38:14.320Z,95401
2023-01-21T03:41:39.575Z,95404
2023-01-21T03:45:04.821Z,95407
2023-01-21T03:48:30.073Z,95399
2023-01-21T03:51:55.347Z,95405
2023-01-21T03:55:20.548Z,95409
2023-01-21T03:58:45.827Z,95406
2023-01-21T04:02:11.088Z,95398
2023-01-21T04:05:36.294Z,95401
2023-01-21T04:09:01.538Z,95409
2023-01-21T04:12:26.777Z,95402
2023-01-21T04:15:52.046Z,95409
2023-01-21T04:19:17.285Z,95404
2023-01-21T04:22:42.511Z,95406
2023-01-21T04:26:07.754Z,95401
2023-01-21T04:29:33.015Z,95404
2023-01-21T04:32:58.316Z,95402
2023-01-21T04:36:23.525Z,95396
2023-01-21T04:39:48.757Z,95400
2023-01-21T04:43:14.019Z,95399
2023-01-21T04:46:39.259Z,95401
2023-01-21T04:50:04.532Z,95408
2023-01-21T04:53:29.774Z,95409
2023-01-21T04:56:55.015Z,95417
2023-01-21T05:00:20.260Z,95405
2023-01-21T05:03:45.526Z,95410
2023-01-21T05:07:10.808Z,95417
2023-01-21T05:10:36.007Z,95424
2023-01-21T05:14:01.272Z,95424
2023-01-21T05:17:26.523Z,95428
2023-01-21T05:20:51.778Z,95429
2023-01-21T05:24:17.037Z,95424
2023-01-21T05:27:42.252Z,95431
2023-01-21T05:31:07.614Z,95429
2023-01-21T05:34:32.735Z,95428
2023-01-21T05:38:00.282Z,95426
2023-01-21T05:41:23.223Z,95426
2023-01-21T05:44:48.490Z,95432
2023-01-21T05:48:13.726Z,95429
2023-01-21T05:51:38.948Z,95429
2023-01-21T05:55:04.195Z,95435
2023-01-21T05:58:29.478Z,95436
2023-01-21T06:01:54.682Z,95445
2023-01-21T06:05:19.938Z,95455
2023-01-21T06:08:45.203Z,95460
2023-01-21T06:12:10.431Z,95462
2023-01-21T06:15:35.722Z,95465
2023-01-21T06:19:00.892Z,95469
2023-01-21T06:22:26.163Z,95470
2023-01-21T06:25:51.386Z,95473
2023-01-21T06:29:16.631Z,95475
2023-01-21T06:32:41.921Z,95476
2023-01-21T06:36:07.121Z,95488
2023-01-21T06:39:32.359Z,95490
2023-01-21T06:42:57.638Z,95497
2023-01-21T06:46:22.854Z,95501
2023-01-21T06:49:48.214Z,95496
2023-01-21T06:53:13.436Z,95496
2023-01-21T06:56:38.663Z,95508
2023-01-21T07:00:03.942Z,95518
2023-01-21T07:03:29.435Z,95514
2023-01-21T07:06:54.810Z,95519
2023-01-21T07:10:20.121Z,95525
2023-01-21T07:13:45.530Z,95519
2023-01-21T07:17:10.897Z,95530
2023-01-21T07:20:36.300Z,95531
2023-01-21T07:24:01.631Z,95532
2023-01-21T07:27:26.966Z,95533
2023-01-21T07:30:52.346Z,95534
2023-01-21T07:34:17.744Z,95535
2023-01-21T07:37:43.095Z,95536
2023-01-21T07:41:08.395Z,95536
2023-01-21T07:44:33.662Z,95544
2023-01-21T07:47:59.068Z,95548
2023-01-21T07:51:24.392Z,95542
2023-01-21T07:54:49.969Z,95549
2023-01-21T07:58:15.332Z,95549
2023-01-21T08:01:41.289Z,95546
2023-01-21T08:05:06.424Z,95548
2023-01-21T08:08:31.674Z,95555
2023-01-21T08:11:56.924Z,95544
2023-01-21T08:15:22.207Z,95551
2023-01-21T08:18:47.486Z,95556
2023-01-21T08:22:12.762Z,95551
2023-01-21T08:25:37.990Z,95551
2023-01-21T08:29:03.257Z,95554
2023-01-21T08:32:28.523Z,95564
2023-01-21T08:35:53.787Z,95552
2023-01-21T08:39:19.104Z,95564
2023-01-21T08:42:44.358Z,95569
2023-01-21T08:46:09.633Z,95563
2023-01-21T08:49:34.980Z,95575
2023-01-21T08:53:00.379Z,95574
2023-01-21T08:56:25.713Z,95572
2023-01-21T08:59:51.091Z,95574
2023-01-21T09:03:16.501Z,95573
2023-01-21T09:06:41.795Z,95573
2023-01-21T09:10:07.190Z,95571
2023-01-21T09:13:34.167Z,95573
2023-01-21T09:16:59.464Z,95575
2023-01-21T09:20:24.792Z,95574
2023-01-21T09:23:51.095Z,95578
2023-01-21T09:27:15.383Z,95580
2023-01-21T09:30:40.641Z,95581
2023-01-21T09:34:05.916Z,95578
2023-01-21T09:37:31.838Z,95587
2023-01-21T09:40:57.090Z,95584
2023-01-21T09:44:22.313Z,95592
2023-01-21T09:47:47.591Z,95587
2023-01-21T09:51:12.864Z,95590
2023-01-21T09:54:38.081Z,95591
2023-01-21T09:58:03.365Z,95588
2023-01-21T10:01:28.674Z,95592
2023-01-21T10:04:53.936Z,95594
2023-01-21T10:08:19.221Z,95588
2023-01-21T10:11:46.174Z,95588
2023-01-21T10:15:09.834Z,95592
2023-01-21T10:18:35.214Z,95595
2023-01-21T10:22:00.606Z,95587
2023-01-21T10:25:25.976Z,95590
2023-01-21T10:28:51.300Z,95594
2023-01-21T10:32:16.634Z,95586
2023-01-21T10:35:41.956Z,95583
2023-01-21T10:39:07.276Z,95584
2023-01-21T10:42:32.629Z,95586
2023-01-21T10:45:58.736Z,95586
2023-01-21T10:49:24.218Z,95588
2023-01-21T10:52:49.493Z,95583
2023-01-21T10:56:14.781Z,95580
2023-01-21T10:59:40.056Z,95581
2023-01-21T11:03:05.357Z,95583
2023-01-21T11:06:30.668Z,95579
2023-01-21T11:09:55.918Z,95573
2023-01-21T11:13:21.397Z,95573
2023-01-21T11:16:46.897Z,95581
2023-01-21T11:20:12.271Z,95572
2023-01-21T11:23:37.757Z,95576
2023-01-21T11:27:04.087Z,95580
2023-01-21T11:30:44.394Z,95587
2023-01-21T11:33:54.834Z,95592
2023-01-21T11:37:20.145Z,95570
2023-01-21T11:40:45.471Z,95582
2023-01-21T11:44:10.799Z,95584
2023-01-21T11:47:36.442Z,95583
2023-01-21T11:51:01.574Z,95586
2023-01-21T11:54:26.886Z,95589
2023-01-21T11:57:52.221Z,95580
2023-01-21T12:01:17.490Z,95580
2023-01-21T12:04:42.826Z,95577
2023-01-21T12:08:08.165Z,95578
2023-01-21T12:11:33.462Z,95584
2023-01-21T12:14:58.863Z,95578
2023-01-21T12:18:24.285Z,95574
2023-01-21T12:21:49.795Z,95576
2023-01-21T12:25:15.347Z,95571
2023-01-21T12:28:40.780Z,95567
2023-01-21T12:32:06.275Z,95564
2023-01-21T12:35:31.602Z,95563
2023-01-21T12:38:56.928Z,95557
2023-01-21T12:42:22.305Z,95557
2023-01-21T12:45:47.714Z,95553
2023-01-21T12:49:13.083Z,95551
2023-01-21T12:52:38.347Z,95561
2023-01-21T12:56:03.741Z,95557
2023-01-21T12:59:31.316Z,95557
2023-01-21T13:02:54.509Z,95556
2023-01-21T13:06:19.839Z,95549
2023-01-21T13:09:45.192Z,95550
2023-01-21T13:13:10.534Z,95551
2023-01-21T13:16:35.863Z,95553
2023-01-21T13:20:01.211Z,95545
2023-01-21T13:23:26.647Z,95547
2023-01-21T13:26:52.192Z,95546
2023-01-21T13:30:17.988Z,95538
2023-01-21T13:33:43.331Z,95536
2023-01-21T13:37:08.762Z,95536
2023-01-21T13:40:34.191Z,95539
2023-01-21T13:43:59.623Z,95533
2023-01-21T13:47:25.016Z,95534
2023-01-21T13:50:51.114Z,95535
2023-01-21T13:54:16.959Z,95537
2023-01-21T13:57:49.844Z,95537
2023-01-21T14:01:16.694Z,95535
2023-01-21T14:04:42.098Z,95538
2023-01-21T14:08:11.029Z,95531
2023-01-21T14:11:36.789Z,95538
2023-01-21T14:15:03.495Z,95523
2023-01-21T14:18:29.129Z,95522
2023-01-21T14:21:54.521Z,95521
2023-01-21T14:25:19.862Z,95515
2023-01-21T14:28:45.251Z,95520
2023-01-21T15:06:11.701Z,95505
2023-01-21T15:09:37.004Z,95501
2023-01-21T15:13:02.355Z,95507
2023-01-21T15:16:27.648Z,95506
2023-01-21T15:19:52.920Z,95509
2023-01-21T15:23:18.244Z,95505
2023-01-21T15:26:43.490Z,95507
2023-01-21T15:30:08.771Z,95492
2023-01-21T15:33:34.051Z,95488
2023-01-21T15:36:59.348Z,95491
2023-01-21T15:40:24.694Z,95492
2023-01-21T15:43:50.003Z,95487
2023-01-21T15:47:15.346Z,95489
2023-01-21T15:50:40.636Z,95485
2023-01-21T15:54:05.915Z,95482
2023-01-21T15:57:31.241Z,95482
2023-01-21T16:00:56.546Z,95483
2023-01-21T16:04:21.804Z,95484
2023-01-21T16:07:47.110Z,95471
2023-01-21T16:11:12.483Z,95467
2023-01-21T16:14:37.802Z,95470
2023-01-21T16:18:03.050Z,95465
2023-01-21T16:21:28.326Z,95451
2023-01-21T16:24:53.620Z,95452
2023-01-21T16:28:18.991Z,95446
2023-01-21T16:31:44.723Z,95448
2023-01-21T16:35:09.561Z,95448
2023-01-21T16:38:34.901Z,95443
2023-01-21T16:42:00.157Z,95440
2023-01-21T16:45:25.413Z,95434
2023-01-21T16:48:50.763Z,95431
2023-01-21T16:52:16.010Z,95423
2023-01-21T16:55:41.280Z,95422
2023-01-21T16:59:06.611Z,95419
2023-01-21T17:02:32.017Z,95417
2023-01-21T17:05:57.236Z,95419
2023-01-21T17:09:22.483Z,95416
2023-01-21T17:12:47.795Z,95415
2023-01-21T17:16:13.085Z,95413
2023-01-21T17:19:38.705Z,95417
2023-01-21T17:23:04.025Z,95409
2023-01-21T17:26:29.272Z,95405
2023-01-21T17:29:54.771Z,95409
2023-01-21T17:33:20.133Z,95401
2023-01-21T17:36:45.546Z,95406
2023-01-21T17:40:10.892Z,95412
2023-01-21T17:43:36.193Z,95425
2023-01-21T17:47:01.482Z,95423
2023-01-21T17:50:26.769Z,95428
2023-01-21T17:53:52.814Z,95421
2023-01-21T17:57:18.069Z,95423
2023-01-21T18:00:44.334Z,95423
2023-01-21T18:04:09.630Z,95422
2023-01-21T18:07:35.006Z,95417
2023-01-21T18:11:00.356Z,95423
2023-01-21T18:14:25.664Z,95422
2023-01-21T18:17:50.934Z,95412
2023-01-21T18:21:16.173Z,95418
2023-01-21T18:24:41.441Z,95408
2023-01-21T18:28:06.728Z,95408
2023-01-21T18:31:32.149Z,95397
2023-01-21T18:34:57.311Z,95402
2023-01-21T18:38:22.573Z,95402
2023-01-21T18:41:47.860Z,95408
2023-01-21T18:45:13.121Z,95400
2023-01-21T18:48:38.408Z,95398
2023-01-21T18:52:03.649Z,95403
2023-01-21T18:55:28.966Z,95397
2023-01-21T18:58:54.222Z,95398
2023-01-21T19:02:19.626Z,95398
2023-01-21T19:05:44.842Z,95389
2023-01-21T19:09:11.588Z,95388
2023-01-21T19:12:35.368Z,95391
2023-01-21T19:16:00.684Z,95389
2023-01-21T19:19:25.920Z,95385
2023-01-21T19:22:51.205Z,95388
2023-01-21T19:26:16.442Z,95384
2023-01-21T19:29:41.771Z,95393
2023-01-21T19:33:07.077Z,95394
2023-01-21T19:36:32.356Z,95390
2023-01-21T19:39:57.792Z,95383
2023-01-21T19:43:23.287Z,95375
2023-01-21T19:46:48.395Z,95370
2023-01-21T19:50:13.585Z,95371
2023-01-21T19:53:38.965Z,95375
2023-01-21T19:57:04.328Z,95383
2023-01-21T20:00:29.580Z,95381
2023-01-21T20:04:00.454Z,95384
2023-01-21T20:07:20.168Z,95391
2023-01-21T20:10:45.528Z,95383
2023-01-21T20:14:10.878Z,95388
2023-01-21T20:17:36.175Z,95387
2023-01-21T20:21:01.465Z,95393
2023-01-21T20:24:26.789Z,95398
2023-01-21T20:27:52.198Z,95400
2023-01-21T20:31:17.653Z,95392
2023-01-21T20:34:42.845Z,95399
2023-01-21T20:38:08.135Z,95401
2023-01-21T20:41:33.563Z,95404
2023-01-21T20:44:58.925Z,95406
2023-01-21T20:48:25.274Z,95396
2023-01-21T20:51:49.678Z,95408
2023-01-21T20:55:15.238Z,95407
2023-01-21T20:58:40.595Z,95409
2023-01-21T21:02:05.919Z,95414
2023-01-21T21:05:31.412Z,95412
2023-01-21T21:08:56.565Z,95403
2023-01-21T21:12:21.819Z,95408
2023-01-21T21:15:47.120Z,95410
2023-01-21T21:19:12.469Z,95415
2023-01-21T21:22:37.776Z,95417
2023-01-21T21:26:03.025Z,95415
2023-01-21T21:29:28.290Z,95416
2023-01-21T21:32:53.596Z,95410
2023-01-21T21:36:18.885Z,95413
2023-01-21T21:39:44.178Z,95415
2023-01-21T21:43:09.425Z,95421
2023-01-21T21:46:34.639Z,95422
2023-01-21T21:49:59.917Z,95427
2023-01-21T21:53:25.164Z,95422
2023-01-21T21:56:50.487Z,95429
2023-01-21T22:00:15.723Z,95431
2023-01-21T22:03:40.972Z,95432
2023-01-21T22:07:06.232Z,95432
2023-01-21T22:10:31.513Z,95439
2023-01-21T22:13:56.810Z,95433
2023-01-21T22:17:22.001Z,95439
2023-01-21T22:20:47.276Z,95438
2023-01-21T22:24:12.560Z,95438
2023-01-21T22:27:37.853Z,95440
2023-01-21T22:31:03.235Z,95435
2023-01-21T22:34:28.379Z,95441
2023-01-21T22:37:53.651Z,95441
2023-01-21T22:41:18.941Z,95442
2023-01-21T22:44:44.226Z,95450
2023-01-21T22:48:09.533Z,95446
2023-01-21T22:51:34.736Z,95451
2023-01-21T22:55:00.008Z,95450
2023-01-21T22:58:25.318Z,95447
2023-01-21T23:01:50.540Z,95448
2023-01-21T23:05:16.382Z,95440
2023-01-21T23:08:41.065Z,95449
2023-01-21T23:12:06.347Z,95441
2023-01-21T23:15:31.666Z,95450
2023-01-21T23:18:56.863Z,95442
2023-01-21T23:22:22.168Z,95442
2023-01-21T23:25:47.417Z,95445
2023-01-21T23:29:12.686Z,95447
2023-01-21T23:32:37.946Z,95449
2023-01-21T23:36:03.231Z,95440
2023-01-21T23:39:28.582Z,95445
2023-01-21T23:42:53.831Z,95439
2023-01-21T23:46:19.204Z,95441
2023-01-21T23:49:44.421Z,95441
2023-01-21T23:53:09.668Z,95436
2023-01-21T23:56:34.931Z,95433
